createdAt,value
2023-01-13T00:00:51.533Z,6.63
2023-01-13T00:03:18.464Z,6.65
2023-01-13T00:05:45.028Z,6.65
2023-01-13T00:08:11.533Z,6.74
2023-01-13T00:10:38.051Z,6.68
2023-01-13T00:13:05.900Z,6.64
2023-01-13T00:15:33.861Z,6.64
2023-01-13T00:18:00.919Z,6.69
2023-01-13T00:20:27.923Z,6.63
2023-01-13T00:22:55.590Z,6.64
2023-01-13T00:25:22.147Z,6.60
2023-01-13T00:27:49.107Z,6.57
2023-01-13T00:30:16.418Z,6.52
2023-01-13T00:32:42.995Z,6.50
2023-01-13T00:35:09.606Z,6.47
2023-01-13T00:37:37.953Z,6.40
2023-01-13T00:40:06.019Z,6.32
2023-01-13T00:42:51.269Z,6.32
2023-01-13T00:45:18.252Z,6.32
2023-01-13T00:47:44.817Z,6.28
2023-01-13T00:50:11.387Z,6.25
2023-01-13T00:52:39.597Z,6.21
2023-01-13T00:55:08.083Z,6.13
2023-01-13T00:57:34.909Z,6.18
2023-01-13T01:00:02.505Z,6.10
2023-01-13T01:02:29.054Z,6.10
2023-01-13T01:04:55.601Z,6.10
2023-01-13T01:07:22.689Z,6.15
2023-01-13T01:09:50.331Z,6.15
2023-01-13T01:12:17.426Z,6.12
2023-01-13T01:14:44.538Z,6.10
2023-01-13T01:17:11.051Z,6.03
2023-01-13T01:19:38.766Z,6.04
2023-01-13T01:22:05.486Z,6.09
2023-01-13T01:24:32.042Z,6.10
2023-01-13T01:26:59.127Z,6.07
2023-01-13T01:29:26.160Z,6.15
2023-01-13T01:31:53.160Z,6.35
2023-01-13T01:34:20.148Z,6.40
2023-01-13T01:36:47.612Z,6.39
2023-01-13T01:39:14.126Z,6.43
2023-01-13T01:42:00.648Z,6.47
2023-01-13T01:44:42.174Z,6.61
2023-01-13T01:47:18.072Z,6.57
2023-01-13T01:49:46.067Z,6.65
2023-01-13T01:52:40.300Z,6.57
2023-01-13T01:55:13.648Z,6.54
2023-01-13T01:57:49.778Z,6.59
2023-01-13T02:00:16.624Z,6.56
2023-01-13T02:02:46.328Z,6.58
2023-01-13T02:05:13.939Z,6.64
2023-01-13T02:07:43.204Z,6.68
2023-01-13T02:10:14.654Z,6.61
2023-01-13T02:12:45.459Z,6.59
2023-01-13T02:15:18.410Z,6.58
2023-01-13T02:17:54.229Z,6.58
2023-01-13T02:20:54.875Z,6.58
2023-01-13T02:24:13.535Z,6.59
2023-01-13T02:27:22.852Z,6.63
2023-01-13T02:30:26.919Z,6.62
2023-01-13T02:33:06.199Z,6.62
2023-01-13T02:35:52.996Z,6.60
2023-01-13T02:38:26.332Z,6.61
2023-01-13T02:41:27.361Z,6.55
2023-01-13T02:44:10.508Z,6.50
2023-01-13T02:47:06.273Z,6.58
2023-01-13T02:49:41.564Z,6.66
2023-01-13T02:52:28.548Z,6.57
2023-01-13T02:55:00.365Z,6.63
2023-01-13T02:57:31.600Z,6.28
2023-01-13T02:59:58.674Z,6.38
2023-01-13T03:02:26.439Z,6.57
2023-01-13T03:04:59.223Z,6.48
2023-01-13T03:07:35.335Z,6.62
2023-01-13T03:10:11.754Z,6.53
2023-01-13T03:13:12.660Z,6.57
2023-01-13T03:15:54.104Z,6.43
2023-01-13T03:18:23.765Z,6.51
2023-01-13T03:21:04.040Z,6.63
2023-01-13T03:23:37.663Z,6.66
2023-01-13T03:26:41.569Z,6.61
2023-01-13T03:29:18.018Z,6.56
2023-01-13T03:32:00.231Z,6.44
2023-01-13T03:34:46.689Z,6.48
2023-01-13T03:37:18.071Z,6.50
2023-01-13T03:39:55.902Z,6.20
2023-01-13T03:42:26.432Z,6.48
2023-01-13T03:45:00.638Z,6.55
2023-01-13T03:47:55.537Z,6.59
2023-01-13T03:50:33.114Z,6.41
2023-01-13T03:53:09.318Z,6.61
2023-01-13T03:55:40.173Z,6.63
2023-01-13T03:58:15.372Z,6.59
2023-01-13T04:00:50.847Z,6.51
2023-01-13T04:03:30.277Z,6.53
2023-01-13T04:06:05.057Z,6.48
2023-01-13T04:08:35.316Z,6.42
2023-01-13T04:11:18.640Z,6.44
2023-01-13T04:13:49.178Z,6.44
2023-01-13T04:16:16.182Z,6.32
2023-01-13T04:18:42.775Z,6.41
2023-01-13T04:21:09.879Z,6.37
2023-01-13T04:23:37.065Z,6.41
2023-01-13T04:26:04.179Z,6.37
2023-01-13T04:28:31.285Z,6.42
2023-01-13T04:30:57.883Z,6.50
2023-01-13T04:33:25.048Z,6.49
2023-01-13T04:35:52.734Z,6.31
2023-01-13T04:38:21.042Z,6.18
2023-01-13T04:40:48.504Z,6.36
2023-01-13T04:43:16.034Z,6.38
2023-01-13T04:45:43.381Z,6.21
2023-01-13T04:48:10.556Z,6.43
2023-01-13T04:50:37.741Z,6.35
2023-01-13T04:53:04.823Z,6.43
2023-01-13T04:55:32.120Z,6.41
2023-01-13T04:58:07.164Z,6.42
2023-01-13T05:00:34.250Z,6.46
2023-01-13T05:03:01.577Z,6.32
2023-01-13T05:05:29.778Z,6.37
2023-01-13T05:07:57.981Z,6.29
2023-01-13T05:10:25.135Z,6.32
2023-01-13T05:13:10.195Z,6.28
2023-01-13T05:15:55.440Z,6.24
2023-01-13T05:18:22.783Z,6.31
2023-01-13T05:20:50.454Z,6.37
2023-01-13T05:23:36.645Z,6.36
2023-01-13T05:26:04.687Z,6.31
2023-01-13T05:28:33.184Z,6.37
2023-01-13T05:31:00.257Z,6.27
2023-01-13T05:33:26.952Z,6.18
2023-01-13T05:35:53.477Z,6.02
2023-01-13T05:38:20.509Z,6.22
2023-01-13T05:41:05.587Z,6.08
2023-01-13T05:43:33.172Z,6.38
2023-01-13T05:46:02.934Z,6.33
2023-01-13T05:48:37.054Z,6.43
2023-01-13T05:51:05.684Z,6.40
2023-01-13T05:53:32.435Z,6.47
2023-01-13T05:55:59.735Z,6.53
2023-01-13T05:58:28.453Z,6.50
2023-01-13T06:01:01.312Z,6.51
2023-01-13T06:03:28.428Z,6.38
2023-01-13T06:06:01.480Z,6.49
2023-01-13T06:08:28.538Z,6.59
2023-01-13T06:10:55.067Z,6.57
2023-01-13T06:13:22.256Z,6.54
2023-01-13T06:15:49.000Z,6.57
2023-01-13T06:18:15.835Z,6.61
2023-01-13T06:20:42.883Z,6.51
2023-01-13T06:23:11.796Z,6.71
2023-01-13T06:26:04.916Z,6.77
2023-01-13T06:28:33.289Z,6.68
2023-01-13T06:31:06.164Z,6.67
2023-01-13T06:33:55.296Z,6.58
2023-01-13T06:36:30.980Z,6.62
2023-01-13T06:39:01.390Z,6.72
2023-01-13T06:41:48.696Z,6.27
2023-01-13T06:44:15.316Z,6.74
2023-01-13T06:46:41.916Z,6.70
2023-01-13T06:49:09.479Z,6.70
2023-01-13T06:51:36.560Z,6.60
2023-01-13T06:54:03.621Z,6.43
2023-01-13T06:56:30.191Z,6.79
2023-01-13T06:58:56.763Z,6.73
2023-01-13T07:01:23.506Z,6.75
2023-01-13T07:03:50.130Z,6.67
2023-01-13T07:06:16.628Z,6.58
2023-01-13T07:08:43.127Z,6.74
2023-01-13T07:11:09.709Z,6.76
2023-01-13T07:13:54.896Z,6.81
2023-01-13T07:16:21.601Z,6.77
2023-01-13T07:18:48.137Z,6.90
2023-01-13T07:21:18.802Z,6.66
2023-01-13T07:23:45.821Z,6.58
2023-01-13T07:26:12.433Z,6.30
2023-01-13T07:28:39.996Z,6.50
2023-01-13T07:31:14.529Z,6.68
2023-01-13T07:33:41.172Z,6.59
2023-01-13T07:36:08.385Z,6.66
2023-01-13T07:38:35.097Z,6.50
2023-01-13T07:41:22.012Z,6.54
2023-01-13T07:43:48.596Z,6.38
2023-01-13T07:46:15.967Z,6.43
2023-01-13T07:48:42.592Z,6.46
2023-01-13T07:51:11.786Z,6.51
2023-01-13T07:53:39.074Z,6.37
2023-01-13T07:56:07.166Z,6.50
2023-01-13T07:58:35.375Z,6.41
2023-01-13T08:01:12.377Z,6.52
2023-01-13T08:03:40.410Z,6.49
2023-01-13T08:06:07.443Z,6.42
2023-01-13T08:08:34.864Z,6.39
2023-01-13T08:11:06.397Z,6.37
2023-01-13T08:13:33.317Z,6.32
2023-01-13T08:16:03.359Z,6.50
2023-01-13T08:18:32.077Z,6.44
2023-01-13T08:21:02.792Z,6.48
2023-01-13T08:23:29.462Z,6.52
2023-01-13T08:26:10.552Z,6.39
2023-01-13T08:28:37.639Z,6.52
2023-01-13T08:31:06.224Z,6.31
2023-01-13T08:33:34.043Z,6.21
2023-01-13T08:36:06.711Z,6.58
2023-01-13T08:38:34.789Z,6.57
2023-01-13T08:41:02.865Z,6.49
2023-01-13T08:43:29.921Z,6.60
2023-01-13T08:45:59.223Z,6.47
2023-01-13T08:48:26.744Z,6.60
2023-01-13T08:50:53.440Z,6.51
2023-01-13T08:53:21.029Z,6.72
2023-01-13T08:55:47.619Z,6.67
2023-01-13T08:58:16.303Z,6.62
2023-01-13T09:00:43.552Z,6.70
2023-01-13T09:03:10.136Z,6.57
2023-01-13T09:05:37.418Z,6.79
2023-01-13T09:08:04.558Z,6.76
2023-01-13T09:10:31.852Z,6.86
2023-01-13T09:13:13.982Z,6.62
2023-01-13T09:15:50.158Z,6.81
2023-01-13T09:18:16.763Z,6.84
2023-01-13T09:20:44.565Z,6.85
2023-01-13T09:23:11.600Z,7.01
2023-01-13T09:25:38.936Z,6.99
2023-01-13T09:28:05.964Z,6.64
2023-01-13T09:30:32.536Z,7.05
2023-01-13T09:33:18.544Z,7.14
2023-01-13T09:35:45.885Z,7.11
2023-01-13T09:38:12.465Z,7.10
2023-01-13T09:40:41.470Z,7.20
2023-01-13T09:43:53.796Z,7.34
2023-01-13T09:46:43.153Z,7.24
2023-01-13T09:49:20.737Z,7.19
2023-01-13T09:51:55.515Z,7.28
2023-01-13T09:54:28.484Z,7.33
2023-01-13T09:56:55.481Z,7.25
2023-01-13T09:59:22.525Z,7.15
2023-01-13T10:02:04.042Z,7.25
2023-01-13T10:04:31.268Z,7.25
2023-01-13T10:07:03.788Z,7.25
2023-01-13T10:09:34.502Z,7.39
2023-01-13T10:12:20.925Z,7.27
2023-01-13T10:14:57.563Z,7.38
2023-01-13T10:17:43.837Z,7.38
2023-01-13T10:20:27.255Z,7.40
2023-01-13T10:23:47.948Z,7.39
2023-01-13T10:26:26.909Z,7.48
2023-01-13T10:28:55.750Z,7.49
2023-01-13T10:31:23.900Z,7.46
2023-01-13T10:34:01.932Z,7.36
2023-01-13T10:36:29.046Z,7.39
2023-01-13T10:39:08.245Z,6.91
2023-01-13T10:41:36.224Z,7.22
2023-01-13T10:44:16.437Z,7.65
2023-01-13T10:46:55.583Z,7.62
2023-01-13T10:49:29.233Z,7.61
2023-01-13T10:51:55.798Z,7.55
2023-01-13T10:54:25.544Z,7.49
2023-01-13T10:57:18.316Z,7.73
2023-01-13T10:59:45.555Z,7.65
2023-01-13T11:02:29.604Z,7.76
2023-01-13T11:04:56.762Z,7.76
2023-01-13T11:07:49.481Z,7.81
2023-01-13T11:10:23.269Z,7.75
2023-01-13T11:13:02.166Z,7.79
2023-01-13T11:15:53.922Z,7.77
2023-01-13T11:18:31.122Z,7.73
2023-01-13T11:21:00.726Z,7.76
2023-01-13T11:23:35.777Z,7.69
2023-01-13T11:26:06.750Z,7.83
2023-01-13T11:28:50.422Z,7.84
2023-01-13T11:31:54.272Z,7.89
2023-01-13T11:34:27.248Z,7.97
2023-01-13T11:36:57.314Z,7.97
2023-01-13T11:39:29.950Z,8.02
2023-01-13T11:42:20.575Z,8.04
2023-01-13T11:45:01.810Z,8.04
2023-01-13T11:47:29.021Z,7.82
2023-01-13T11:49:55.999Z,7.90
2023-01-13T11:52:40.777Z,8.04
2023-01-13T11:55:20.597Z,8.04
2023-01-13T11:58:10.299Z,8.08
2023-01-13T12:00:56.086Z,7.90
2023-01-13T12:03:30.935Z,8.00
2023-01-13T12:06:34.907Z,8.19
2023-01-13T12:09:21.277Z,8.18
2023-01-13T12:12:22.836Z,8.17
2023-01-13T12:15:21.068Z,8.03
2023-01-13T12:18:09.359Z,8.17
2023-01-13T12:20:59.997Z,8.10
2023-01-13T12:24:03.179Z,8.13
2023-01-13T12:26:36.223Z,8.11
2023-01-13T12:29:07.723Z,7.86
2023-01-13T12:31:39.221Z,8.17
2023-01-13T12:34:18.332Z,8.17
2023-01-13T12:36:56.024Z,8.24
2023-01-13T12:39:43.332Z,8.34
2023-01-13T12:42:42.593Z,8.18
2023-01-13T12:45:12.341Z,8.19
2023-01-13T12:47:48.472Z,8.17
2023-01-13T12:50:24.769Z,8.07
2023-01-13T12:52:55.331Z,8.04
2023-01-13T12:55:32.399Z,8.02
2023-01-13T12:58:08.089Z,8.15
2023-01-13T13:00:40.391Z,8.21
2023-01-13T13:03:12.713Z,8.22
2023-01-13T13:05:48.857Z,8.14
2023-01-13T13:08:41.442Z,8.28
2023-01-13T13:11:32.841Z,8.26
2023-01-13T13:14:05.287Z,8.22
2023-01-13T13:16:31.825Z,8.28
2023-01-13T13:19:23.055Z,8.25
2023-01-13T13:22:18.202Z,8.20
2023-01-13T13:24:57.618Z,8.19
2023-01-13T13:27:51.985Z,8.24
2023-01-13T13:30:28.037Z,8.03
2023-01-13T13:33:31.702Z,8.21
2023-01-13T13:36:11.452Z,8.14
2023-01-13T13:39:19.068Z,8.28
2023-01-13T13:42:09.163Z,8.36
2023-01-13T13:45:01.124Z,8.26
2023-01-13T13:47:36.130Z,8.27
2023-01-13T13:50:06.882Z,8.33
2023-01-13T13:52:45.866Z,8.18
2023-01-13T13:55:21.698Z,8.32
2023-01-13T13:57:51.089Z,8.14
2023-01-13T14:00:23.578Z,8.23
2023-01-13T14:03:05.513Z,8.24
2023-01-13T14:05:37.329Z,8.13
2023-01-13T14:08:14.528Z,8.17
2023-01-13T14:10:46.255Z,8.25
2023-01-13T14:13:25.000Z,8.31
2023-01-13T14:15:59.247Z,8.28
2023-01-13T14:18:27.807Z,8.19
2023-01-13T14:21:00.003Z,8.27
2023-01-13T14:23:29.478Z,8.25
2023-01-13T14:26:01.270Z,7.78
2023-01-13T14:28:35.590Z,8.15
2023-01-13T14:31:02.700Z,8.04
2023-01-13T14:33:39.075Z,8.17
2023-01-13T14:36:19.239Z,8.09
2023-01-13T14:38:49.756Z,8.14
2023-01-13T14:41:27.885Z,8.09
2023-01-13T14:43:59.256Z,8.11
2023-01-13T14:46:37.242Z,7.87
2023-01-13T14:49:04.297Z,7.98
2023-01-13T14:51:32.079Z,7.87
2023-01-13T14:53:59.282Z,7.71
2023-01-13T14:56:47.128Z,7.59
2023-01-13T14:59:34.059Z,7.41
2023-01-13T15:02:21.091Z,7.27
2023-01-13T15:04:47.671Z,7.35
2023-01-13T15:07:27.815Z,7.21
2023-01-13T15:09:58.804Z,7.13
2023-01-13T15:12:39.381Z,7.38
2023-01-13T15:15:19.656Z,7.38
2023-01-13T15:17:46.899Z,7.49
2023-01-13T15:20:15.439Z,7.36
2023-01-13T15:22:42.086Z,7.36
2023-01-13T15:25:12.109Z,7.27
2023-01-13T15:27:39.107Z,7.51
2023-01-13T15:30:26.950Z,7.57
2023-01-13T15:32:55.707Z,7.50
2023-01-13T15:35:24.601Z,7.51
2023-01-13T15:37:51.935Z,7.45
2023-01-13T15:40:29.745Z,7.60
2023-01-13T15:43:14.925Z,7.60
2023-01-13T15:46:00.932Z,7.57
2023-01-13T15:48:32.096Z,7.58
2023-01-13T15:51:00.020Z,7.69
2023-01-13T15:53:27.815Z,7.52
2023-01-13T15:55:57.864Z,7.58
2023-01-13T15:58:28.281Z,7.52
2023-01-13T16:00:55.504Z,7.50
2023-01-13T16:03:22.309Z,7.60
2023-01-13T16:05:49.374Z,7.65
2023-01-13T16:08:20.128Z,7.69
2023-01-13T16:10:48.555Z,7.69
2023-01-13T16:13:16.822Z,7.64
2023-01-13T16:15:47.103Z,7.68
2023-01-13T16:18:19.360Z,7.68
2023-01-13T16:20:47.714Z,7.70
2023-01-13T16:23:14.355Z,7.79
2023-01-13T16:25:43.695Z,7.62
2023-01-13T16:28:21.002Z,7.63
2023-01-13T16:30:47.814Z,7.64
2023-01-13T16:33:14.763Z,7.48
2023-01-13T16:36:07.659Z,7.49
2023-01-13T16:38:28.517Z,7.53
2023-01-13T16:40:57.748Z,7.42
2023-01-13T16:43:24.872Z,7.54
2023-01-13T16:45:51.413Z,7.54
2023-01-13T16:48:20.337Z,7.69
2023-01-13T16:50:47.588Z,7.51
2023-01-13T16:53:14.338Z,7.61
2023-01-13T16:55:42.171Z,7.58
2023-01-13T16:58:26.968Z,7.37
2023-01-13T17:00:53.569Z,7.30
2023-01-13T17:03:20.177Z,7.38
2023-01-13T17:05:47.598Z,7.43
2023-01-13T17:08:17.685Z,7.46
2023-01-13T17:10:45.688Z,7.21
2023-01-13T17:13:16.244Z,7.37
2023-01-13T17:15:44.325Z,7.47
2023-01-13T17:18:13.242Z,7.42
2023-01-13T17:20:40.671Z,7.39
2023-01-13T17:23:07.218Z,7.36
2023-01-13T17:25:33.944Z,7.46
2023-01-13T17:28:00.499Z,7.37
2023-01-13T17:30:27.045Z,7.22
2023-01-13T17:32:53.575Z,7.18
2023-01-13T17:35:24.600Z,7.20
2023-01-13T17:37:52.916Z,7.10
2023-01-13T17:40:19.845Z,6.71
2023-01-13T17:42:46.391Z,7.12
2023-01-13T17:45:13.535Z,7.06
2023-01-13T17:47:40.098Z,7.06
2023-01-13T17:50:07.038Z,7.18
2023-01-13T17:52:34.142Z,7.03
2023-01-13T17:55:01.288Z,7.15
2023-01-13T17:57:28.010Z,7.12
2023-01-13T17:59:55.122Z,7.10
2023-01-13T18:02:21.764Z,7.17
2023-01-13T18:04:48.480Z,7.10
2023-01-13T18:07:15.018Z,7.01
2023-01-13T18:09:41.633Z,6.81
2023-01-13T18:12:08.259Z,6.72
2023-01-13T18:14:34.956Z,6.98
2023-01-13T18:17:01.582Z,7.13
2023-01-13T18:19:46.754Z,7.12
2023-01-13T18:22:32.992Z,7.22
2023-01-13T18:25:22.072Z,7.15
2023-01-13T18:27:48.742Z,7.18
2023-01-13T18:30:16.027Z,7.23
2023-01-13T18:32:42.621Z,7.23
2023-01-13T18:35:10.526Z,7.06
2023-01-13T18:37:40.061Z,7.17
2023-01-13T18:40:07.954Z,7.27
2023-01-13T18:42:54.270Z,7.04
2023-01-13T18:45:24.925Z,7.31
2023-01-13T18:47:52.374Z,7.22
2023-01-13T18:50:19.109Z,6.85
2023-01-13T18:52:45.946Z,7.25
2023-01-13T18:55:13.048Z,7.46
2023-01-13T18:57:40.433Z,7.45
2023-01-13T19:00:10.444Z,7.49
2023-01-13T19:02:37.690Z,7.28
2023-01-13T19:05:05.248Z,7.35
2023-01-13T19:07:34.615Z,7.31
2023-01-13T19:10:01.692Z,7.24
2023-01-13T19:12:28.284Z,7.22
2023-01-13T19:14:55.639Z,7.50
2023-01-13T19:17:24.296Z,7.60
2023-01-13T19:19:53.691Z,7.56
2023-01-13T19:22:23.465Z,7.69
2023-01-13T19:24:50.684Z,7.68
2023-01-13T19:27:19.037Z,7.76
2023-01-13T19:29:51.968Z,7.69
2023-01-13T19:32:20.993Z,7.60
2023-01-13T19:34:49.419Z,7.56
2023-01-13T19:37:16.089Z,7.63
2023-01-13T19:39:43.035Z,7.63
2023-01-13T19:42:30.578Z,7.69
2023-01-13T19:45:15.776Z,7.57
2023-01-13T19:47:43.951Z,7.74
2023-01-13T19:50:13.789Z,7.66
2023-01-13T19:52:41.625Z,7.56
2023-01-13T19:55:09.604Z,7.48
2023-01-13T19:57:36.968Z,7.38
2023-01-13T20:00:06.602Z,7.40
2023-01-13T20:02:33.769Z,7.34
2023-01-13T20:05:03.443Z,7.32
2023-01-13T20:07:30.809Z,7.22
2023-01-13T20:09:57.845Z,7.12
2023-01-13T20:12:26.567Z,7.04
2023-01-13T20:14:53.204Z,7.15
2023-01-13T20:17:21.632Z,6.99
2023-01-13T20:19:48.495Z,6.91
2023-01-13T20:22:15.812Z,6.91
2023-01-13T20:24:42.874Z,7.13
2023-01-13T20:27:09.714Z,7.13
2023-01-13T20:29:36.955Z,6.81
2023-01-13T20:32:04.283Z,6.89
2023-01-13T20:34:31.370Z,7.00
2023-01-13T20:36:57.966Z,7.11
2023-01-13T20:39:28.949Z,6.98
2023-01-13T20:42:14.359Z,6.98
2023-01-13T20:44:41.647Z,7.04
2023-01-13T20:47:08.805Z,7.12
2023-01-13T20:49:38.496Z,7.02
2023-01-13T20:52:09.483Z,7.11
2023-01-13T20:54:40.589Z,7.09
2023-01-13T20:57:09.975Z,7.12
2023-01-13T20:59:38.852Z,7.23
2023-01-13T21:02:07.932Z,7.22
2023-01-13T21:04:34.518Z,7.15
2023-01-13T21:07:01.058Z,7.15
2023-01-13T21:09:27.825Z,7.18
2023-01-13T21:12:13.035Z,6.98
2023-01-13T21:14:58.259Z,7.27
2023-01-13T21:17:44.089Z,7.31
2023-01-13T21:20:13.669Z,7.41
2023-01-13T21:22:43.920Z,7.18
2023-01-13T21:25:12.345Z,7.38
2023-01-13T21:27:39.251Z,7.32
2023-01-13T21:30:07.650Z,7.36
2023-01-13T21:32:34.903Z,7.44
2023-01-13T21:35:02.146Z,7.45
2023-01-13T21:37:28.800Z,7.42
2023-01-13T21:39:55.558Z,7.52
2023-01-13T21:42:40.740Z,7.34
2023-01-13T21:45:28.839Z,7.19
2023-01-13T21:47:56.207Z,7.40
2023-01-13T21:50:26.728Z,7.44
2023-01-13T21:52:54.104Z,7.41
2023-01-13T21:55:29.276Z,7.53
2023-01-13T21:58:01.938Z,7.44
2023-01-13T22:00:31.308Z,7.40
2023-01-13T22:02:58.902Z,7.40
2023-01-13T22:05:26.814Z,7.51
2023-01-13T22:07:53.707Z,7.50
2023-01-13T22:10:26.606Z,7.47
2023-01-13T22:12:54.683Z,7.53
2023-01-13T22:15:25.365Z,7.31
2023-01-13T22:17:53.614Z,7.44
2023-01-13T22:20:21.079Z,7.50
2023-01-13T22:22:47.859Z,7.50
2023-01-13T22:25:16.254Z,7.49
2023-01-13T22:27:44.601Z,7.47
2023-01-13T22:30:14.145Z,7.55
2023-01-13T22:32:40.897Z,7.37
2023-01-13T22:35:10.475Z,7.53
2023-01-13T22:37:37.722Z,7.46
2023-01-13T22:40:06.809Z,7.58
2023-01-13T22:42:38.051Z,7.45
2023-01-13T22:45:07.199Z,7.34
2023-01-13T22:47:34.026Z,7.48
2023-01-13T22:50:00.621Z,7.51
2023-01-13T22:52:28.553Z,7.42
2023-01-13T22:54:55.623Z,7.46
2023-01-13T22:57:23.953Z,7.42
2023-01-13T22:59:51.158Z,7.52
2023-01-13T23:02:20.085Z,7.32
2023-01-13T23:04:47.116Z,7.36
2023-01-13T23:07:14.196Z,7.26
2023-01-13T23:09:40.717Z,7.24
2023-01-13T23:12:07.300Z,7.28
2023-01-13T23:14:33.881Z,7.46
2023-01-13T23:17:00.969Z,7.06
2023-01-13T23:19:27.979Z,7.46
2023-01-13T23:21:55.022Z,7.37
2023-01-13T23:24:25.868Z,7.39
2023-01-13T23:26:53.343Z,7.37
2023-01-13T23:29:20.844Z,7.47
2023-01-13T23:31:47.942Z,7.51
2023-01-13T23:34:15.269Z,7.28
2023-01-13T23:36:43.751Z,7.16
2023-01-13T23:39:10.932Z,7.23
2023-01-13T23:41:37.539Z,7.31
2023-01-13T23:44:04.704Z,7.18
2023-01-13T23:46:33.050Z,7.32
2023-01-13T23:49:02.146Z,7.22
2023-01-13T23:51:30.130Z,7.06
2023-01-13T23:53:58.223Z,7.27
2023-01-13T23:56:27.911Z,7.18
2023-01-13T23:58:55.207Z,7.17
